sensor_id;sensor_type;location;lat;lon;timestamp;P1;durP1;ratioP1;P2;durP2;ratioP2
33160;SDS011;19522;45.656;11.302;2022-08-07T00:00:48;3.10;;;2.00;;
33160;SDS011;19522;45.656;11.302;2022-08-07T00:03:14;3.97;;;2.15;;
33160;SDS011;19522;45.656;11.302;2022-08-07T00:05:39;4.82;;;2.53;;
33160;SDS011;19522;45.656;11.302;2022-08-07T00:08:05;2.72;;;1.98;;
33160;SDS011;19522;45.656;11.302;2022-08-07T00:10:31;3.13;;;2.17;;
33160;SDS011;19522;45.656;11.302;2022-08-07T00:12:58;3.22;;;2.30;;
33160;SDS011;19522;45.656;11.302;2022-08-07T00:15:25;4.55;;;2.15;;
33160;SDS011;19522;45.656;11.302;2022-08-07T00:17:51;5.75;;;2.30;;
33160;SDS011;19522;45.656;11.302;2022-08-07T00:20:17;3.50;;;2.45;;
33160;SDS011;19522;45.656;11.302;2022-08-07T00:22:42;2.60;;;1.67;;
33160;SDS011;19522;45.656;11.302;2022-08-07T00:25:10;2.65;;;2.20;;
33160;SDS011;19522;45.656;11.302;2022-08-07T00:27:36;3.20;;;2.20;;
33160;SDS011;19522;45.656;11.302;2022-08-07T00:30:02;4.88;;;2.33;;
33160;SDS011;19522;45.656;11.302;2022-08-07T00:32:28;2.97;;;2.13;;
33160;SDS011;19522;45.656;11.302;2022-08-07T00:34:54;2.88;;;2.10;;
33160;SDS011;19522;45.656;11.302;2022-08-07T00:37:19;2.88;;;2.25;;
33160;SDS011;19522;45.656;11.302;2022-08-07T00:39:45;4.47;;;2.22;;
33160;SDS011;19522;45.656;11.302;2022-08-07T00:42:11;2.92;;;1.92;;
33160;SDS011;19522;45.656;11.302;2022-08-07T00:44:36;2.97;;;1.75;;
33160;SDS011;19522;45.656;11.302;2022-08-07T00:47:02;3.70;;;2.05;;
33160;SDS011;19522;45.656;11.302;2022-08-07T00:49:29;4.53;;;2.33;;
33160;SDS011;19522;45.656;11.302;2022-08-07T00:51:55;3.58;;;2.55;;
33160;SDS011;19522;45.656;11.302;2022-08-07T00:54:21;2.28;;;2.05;;
33160;SDS011;19522;45.656;11.302;2022-08-07T00:56:47;5.10;;;2.78;;
33160;SDS011;19522;45.656;11.302;2022-08-07T00:59:13;4.18;;;2.67;;
33160;SDS011;19522;45.656;11.302;2022-08-07T01:01:38;6.47;;;3.00;;
33160;SDS011;19522;45.656;11.302;2022-08-07T01:04:05;4.90;;;2.70;;
33160;SDS011;19522;45.656;11.302;2022-08-07T01:06:31;4.00;;;2.80;;
33160;SDS011;19522;45.656;11.302;2022-08-07T01:08:57;4.53;;;2.80;;
33160;SDS011;19522;45.656;11.302;2022-08-07T01:11:24;3.15;;;2.63;;
33160;SDS011;19522;45.656;11.302;2022-08-07T01:13:50;4.35;;;3.22;;
33160;SDS011;19522;45.656;11.302;2022-08-07T01:16:15;3.65;;;2.85;;
33160;SDS011;19522;45.656;11.302;2022-08-07T01:18:41;5.55;;;3.30;;
33160;SDS011;19522;45.656;11.302;2022-08-07T01:21:11;5.47;;;3.08;;
33160;SDS011;19522;45.656;11.302;2022-08-07T01:23:42;3.25;;;2.95;;
33160;SDS011;19522;45.656;11.302;2022-08-07T01:26:12;5.03;;;3.72;;
33160;SDS011;19522;45.656;11.302;2022-08-07T01:28:40;4.65;;;3.20;;
33160;SDS011;19522;45.656;11.302;2022-08-07T01:31:07;3.47;;;3.10;;
33160;SDS011;19522;45.656;11.302;2022-08-07T01:33:33;3.75;;;3.15;;
33160;SDS011;19522;45.656;11.302;2022-08-07T01:35:59;4.05;;;2.60;;
33160;SDS011;19522;45.656;11.302;2022-08-07T01:38:27;3.00;;;2.65;;
33160;SDS011;19522;45.656;11.302;2022-08-07T01:40:54;4.50;;;3.00;;
33160;SDS011;19522;45.656;11.302;2022-08-07T01:43:22;9.32;;;3.28;;
33160;SDS011;19522;45.656;11.302;2022-08-07T01:45:49;4.13;;;2.85;;
33160;SDS011;19522;45.656;11.302;2022-08-07T01:48:15;4.18;;;2.88;;
33160;SDS011;19522;45.656;11.302;2022-08-07T01:50:41;3.88;;;3.30;;
33160;SDS011;19522;45.656;11.302;2022-08-07T01:53:11;4.18;;;3.20;;
33160;SDS011;19522;45.656;11.302;2022-08-07T01:55:41;6.43;;;3.00;;
33160;SDS011;19522;45.656;11.302;2022-08-07T01:58:12;3.97;;;3.17;;
33160;SDS011;19522;45.656;11.302;2022-08-07T02:00:42;3.63;;;3.33;;
33160;SDS011;19522;45.656;11.302;2022-08-07T02:03:11;5.43;;;3.00;;
33160;SDS011;19522;45.656;11.302;2022-08-07T02:05:42;4.72;;;2.95;;
33160;SDS011;19522;45.656;11.302;2022-08-07T02:08:12;4.00;;;3.30;;
33160;SDS011;19522;45.656;11.302;2022-08-07T02:10:41;3.67;;;3.30;;
33160;SDS011;19522;45.656;11.302;2022-08-07T02:13:07;5.85;;;3.83;;
33160;SDS011;19522;45.656;11.302;2022-08-07T02:15:34;5.15;;;3.25;;
33160;SDS011;19522;45.656;11.302;2022-08-07T02:18:03;4.60;;;3.10;;
33160;SDS011;19522;45.656;11.302;2022-08-07T02:20:29;6.53;;;3.50;;
33160;SDS011;19522;45.656;11.302;2022-08-07T02:22:58;5.80;;;3.67;;
33160;SDS011;19522;45.656;11.302;2022-08-07T02:25:26;4.40;;;3.50;;
33160;SDS011;19522;45.656;11.302;2022-08-07T02:27:54;9.00;;;3.72;;
33160;SDS011;19522;45.656;11.302;2022-08-07T02:30:20;6.75;;;3.50;;
33160;SDS011;19522;45.656;11.302;2022-08-07T02:32:48;6.75;;;3.78;;
33160;SDS011;19522;45.656;11.302;2022-08-07T02:35:15;4.13;;;3.15;;
33160;SDS011;19522;45.656;11.302;2022-08-07T02:37:43;5.88;;;3.58;;
33160;SDS011;19522;45.656;11.302;2022-08-07T02:40:10;4.28;;;3.42;;
33160;SDS011;19522;45.656;11.302;2022-08-07T02:42:37;5.90;;;3.63;;
33160;SDS011;19522;45.656;11.302;2022-08-07T02:45:04;15.30;;;4.53;;
33160;SDS011;19522;45.656;11.302;2022-08-07T02:47:32;4.65;;;3.42;;
33160;SDS011;19522;45.656;11.302;2022-08-07T02:49:59;4.97;;;3.70;;
33160;SDS011;19522;45.656;11.302;2022-08-07T02:55:24;4.53;;;3.60;;
33160;SDS011;19522;45.656;11.302;2022-08-07T02:57:53;4.05;;;3.65;;
33160;SDS011;19522;45.656;11.302;2022-08-07T03:00:23;6.15;;;4.72;;
33160;SDS011;19522;45.656;11.302;2022-08-07T03:02:52;6.85;;;4.28;;
33160;SDS011;19522;45.656;11.302;2022-08-07T03:05:18;4.75;;;4.18;;
33160;SDS011;19522;45.656;11.302;2022-08-07T03:07:45;5.57;;;4.28;;
33160;SDS011;19522;45.656;11.302;2022-08-07T03:10:12;8.70;;;4.30;;
33160;SDS011;19522;45.656;11.302;2022-08-07T03:12:38;6.18;;;4.20;;
33160;SDS011;19522;45.656;11.302;2022-08-07T03:15:05;4.32;;;3.92;;
33160;SDS011;19522;45.656;11.302;2022-08-07T03:17:31;4.65;;;3.80;;
33160;SDS011;19522;45.656;11.302;2022-08-07T03:19:58;5.13;;;4.15;;
33160;SDS011;19522;45.656;11.302;2022-08-07T03:22:25;5.45;;;3.55;;
33160;SDS011;19522;45.656;11.302;2022-08-07T03:24:55;6.50;;;3.60;;
33160;SDS011;19522;45.656;11.302;2022-08-07T03:27:23;5.55;;;3.88;;
33160;SDS011;19522;45.656;11.302;2022-08-07T03:29:50;6.18;;;3.80;;
33160;SDS011;19522;45.656;11.302;2022-08-07T03:32:26;4.07;;;3.30;;
33160;SDS011;19522;45.656;11.302;2022-08-07T03:34:58;4.10;;;3.70;;
33160;SDS011;19522;45.656;11.302;2022-08-07T03:37:26;5.82;;;3.60;;
33160;SDS011;19522;45.656;11.302;2022-08-07T03:39:54;7.20;;;3.78;;
33160;SDS011;19522;45.656;11.302;2022-08-07T03:42:21;5.85;;;3.92;;
33160;SDS011;19522;45.656;11.302;2022-08-07T03:44:47;6.22;;;4.00;;
33160;SDS011;19522;45.656;11.302;2022-08-07T03:47:13;5.35;;;4.20;;
33160;SDS011;19522;45.656;11.302;2022-08-07T03:49:40;4.03;;;3.42;;
33160;SDS011;19522;45.656;11.302;2022-08-07T03:52:07;6.47;;;3.30;;
33160;SDS011;19522;45.656;11.302;2022-08-07T03:54:35;9.63;;;3.55;;
33160;SDS011;19522;45.656;11.302;2022-08-07T03:57:00;4.88;;;3.70;;
33160;SDS011;19522;45.656;11.302;2022-08-07T03:59:27;5.70;;;3.20;;
33160;SDS011;19522;45.656;11.302;2022-08-07T04:01:54;4.70;;;3.60;;
33160;SDS011;19522;45.656;11.302;2022-08-07T04:04:20;6.07;;;3.55;;
33160;SDS011;19522;45.656;11.302;2022-08-07T04:06:46;5.07;;;3.63;;
33160;SDS011;19522;45.656;11.302;2022-08-07T04:09:12;4.32;;;3.28;;
33160;SDS011;19522;45.656;11.302;2022-08-07T04:11:39;3.72;;;3.33;;
33160;SDS011;19522;45.656;11.302;2022-08-07T04:14:05;4.15;;;3.30;;
33160;SDS011;19522;45.656;11.302;2022-08-07T04:16:31;6.45;;;3.88;;
33160;SDS011;19522;45.656;11.302;2022-08-07T04:18:58;5.97;;;3.90;;
33160;SDS011;19522;45.656;11.302;2022-08-07T04:21:24;6.43;;;3.40;;
33160;SDS011;19522;45.656;11.302;2022-08-07T04:23:50;3.67;;;3.22;;
33160;SDS011;19522;45.656;11.302;2022-08-07T04:26:16;4.75;;;3.35;;
33160;SDS011;19522;45.656;11.302;2022-08-07T04:28:41;5.20;;;3.17;;
33160;SDS011;19522;45.656;11.302;2022-08-07T04:31:07;3.28;;;2.90;;
33160;SDS011;19522;45.656;11.302;2022-08-07T04:33:37;4.00;;;3.00;;
33160;SDS011;19522;45.656;11.302;2022-08-07T04:36:04;4.78;;;3.17;;
33160;SDS011;19522;45.656;11.302;2022-08-07T04:38:32;4.72;;;3.35;;
33160;SDS011;19522;45.656;11.302;2022-08-07T04:40:59;4.38;;;3.40;;
33160;SDS011;19522;45.656;11.302;2022-08-07T04:43:29;4.60;;;3.28;;
33160;SDS011;19522;45.656;11.302;2022-08-07T04:51:32;3.55;;;2.95;;
33160;SDS011;19522;45.656;11.302;2022-08-07T04:54:16;4.88;;;3.08;;
33160;SDS011;19522;45.656;11.302;2022-08-07T04:56:48;3.42;;;2.78;;
33160;SDS011;19522;45.656;11.302;2022-08-07T04:59:25;3.40;;;2.80;;
33160;SDS011;19522;45.656;11.302;2022-08-07T05:07:37;3.40;;;2.78;;
33160;SDS011;19522;45.656;11.302;2022-08-07T05:10:12;3.08;;;2.45;;
33160;SDS011;19522;45.656;11.302;2022-08-07T05:12:51;3.08;;;2.78;;
33160;SDS011;19522;45.656;11.302;2022-08-07T05:15:23;2.85;;;1.77;;
33160;SDS011;19522;45.656;11.302;2022-08-07T05:18:02;3.78;;;2.30;;
33160;SDS011;19522;45.656;11.302;2022-08-07T05:20:37;2.88;;;2.03;;
33160;SDS011;19522;45.656;11.302;2022-08-07T05:23:29;3.47;;;2.38;;
33160;SDS011;19522;45.656;11.302;2022-08-07T05:26:03;3.92;;;2.40;;
33160;SDS011;19522;45.656;11.302;2022-08-07T05:28:30;4.18;;;2.33;;
33160;SDS011;19522;45.656;11.302;2022-08-07T05:30:58;2.85;;;2.28;;
33160;SDS011;19522;45.656;11.302;2022-08-07T05:33:26;3.33;;;2.10;;
33160;SDS011;19522;45.656;11.302;2022-08-07T05:35:52;2.72;;;2.17;;
33160;SDS011;19522;45.656;11.302;2022-08-07T05:38:19;2.70;;;2.20;;
33160;SDS011;19522;45.656;11.302;2022-08-07T05:40:47;4.72;;;2.30;;
33160;SDS011;19522;45.656;11.302;2022-08-07T05:43:14;2.38;;;2.10;;
33160;SDS011;19522;45.656;11.302;2022-08-07T05:45:41;3.78;;;2.30;;
33160;SDS011;19522;45.656;11.302;2022-08-07T05:48:07;3.55;;;2.38;;
33160;SDS011;19522;45.656;11.302;2022-08-07T05:50:33;3.00;;;2.58;;
33160;SDS011;19522;45.656;11.302;2022-08-07T05:53:01;4.25;;;2.50;;
33160;SDS011;19522;45.656;11.302;2022-08-07T05:55:26;3.67;;;1.83;;
33160;SDS011;19522;45.656;11.302;2022-08-07T05:57:53;2.63;;;1.75;;
33160;SDS011;19522;45.656;11.302;2022-08-07T06:00:19;2.35;;;1.88;;
33160;SDS011;19522;45.656;11.302;2022-08-07T06:02:47;2.88;;;2.30;;
33160;SDS011;19522;45.656;11.302;2022-08-07T06:05:14;5.70;;;2.40;;
33160;SDS011;19522;45.656;11.302;2022-08-07T06:07:41;5.57;;;2.92;;
33160;SDS011;19522;45.656;11.302;2022-08-07T06:10:08;3.70;;;2.30;;
33160;SDS011;19522;45.656;11.302;2022-08-07T06:12:35;3.05;;;1.90;;
33160;SDS011;19522;45.656;11.302;2022-08-07T06:15:01;4.53;;;1.98;;
33160;SDS011;19522;45.656;11.302;2022-08-07T06:17:27;3.05;;;2.10;;
33160;SDS011;19522;45.656;11.302;2022-08-07T06:19:54;3.03;;;1.98;;
33160;SDS011;19522;45.656;11.302;2022-08-07T06:22:21;3.67;;;2.25;;
33160;SDS011;19522;45.656;11.302;2022-08-07T06:24:49;2.63;;;1.98;;
33160;SDS011;19522;45.656;11.302;2022-08-07T06:27:21;4.43;;;2.05;;
33160;SDS011;19522;45.656;11.302;2022-08-07T06:29:47;3.33;;;2.05;;
33160;SDS011;19522;45.656;11.302;2022-08-07T06:32:13;3.92;;;2.13;;
33160;SDS011;19522;45.656;11.302;2022-08-07T06:34:38;3.03;;;2.17;;
33160;SDS011;19522;45.656;11.302;2022-08-07T06:37:04;2.60;;;1.77;;
33160;SDS011;19522;45.656;11.302;2022-08-07T06:39:29;2.97;;;2.00;;
33160;SDS011;19522;45.656;11.302;2022-08-07T06:44:44;2.97;;;1.75;;
33160;SDS011;19522;45.656;11.302;2022-08-07T06:47:11;2.13;;;1.45;;
33160;SDS011;19522;45.656;11.302;2022-08-07T06:49:36;5.05;;;1.67;;
33160;SDS011;19522;45.656;11.302;2022-08-07T06:52:02;1.80;;;1.50;;
33160;SDS011;19522;45.656;11.302;2022-08-07T06:54:29;2.00;;;1.45;;
33160;SDS011;19522;45.656;11.302;2022-08-07T06:56:55;2.60;;;1.80;;
33160;SDS011;19522;45.656;11.302;2022-08-07T06:59:25;2.38;;;1.95;;
33160;SDS011;19522;45.656;11.302;2022-08-07T07:01:53;3.33;;;2.25;;
33160;SDS011;19522;45.656;11.302;2022-08-07T07:04:21;3.70;;;1.83;;
33160;SDS011;19522;45.656;11.302;2022-08-07T07:06:47;2.97;;;1.90;;
33160;SDS011;19522;45.656;11.302;2022-08-07T07:14:35;3.92;;;1.85;;
33160;SDS011;19522;45.656;11.302;2022-08-07T07:17:07;2.63;;;2.10;;
33160;SDS011;19522;45.656;11.302;2022-08-07T07:19:38;2.55;;;1.70;;
33160;SDS011;19522;45.656;11.302;2022-08-07T07:22:09;4.38;;;1.52;;
33160;SDS011;19522;45.656;11.302;2022-08-07T07:24:38;5.07;;;2.20;;
33160;SDS011;19522;45.656;11.302;2022-08-07T07:27:06;3.47;;;2.22;;
33160;SDS011;19522;45.656;11.302;2022-08-07T07:29:37;2.25;;;1.73;;
33160;SDS011;19522;45.656;11.302;2022-08-07T07:32:05;3.45;;;2.28;;
33160;SDS011;19522;45.656;11.302;2022-08-07T07:34:33;8.98;;;2.42;;
33160;SDS011;19522;45.656;11.302;2022-08-07T07:37:02;3.95;;;1.80;;
33160;SDS011;19522;45.656;11.302;2022-08-07T07:39:30;2.70;;;1.95;;
33160;SDS011;19522;45.656;11.302;2022-08-07T07:41:57;2.75;;;1.77;;
33160;SDS011;19522;45.656;11.302;2022-08-07T07:44:25;4.60;;;2.17;;
33160;SDS011;19522;45.656;11.302;2022-08-07T07:46:53;2.53;;;1.60;;
33160;SDS011;19522;45.656;11.302;2022-08-07T07:49:22;7.80;;;1.92;;
33160;SDS011;19522;45.656;11.302;2022-08-07T07:51:48;3.67;;;1.92;;
33160;SDS011;19522;45.656;11.302;2022-08-07T07:54:16;2.50;;;1.90;;
33160;SDS011;19522;45.656;11.302;2022-08-07T07:56:43;2.80;;;2.03;;
33160;SDS011;19522;45.656;11.302;2022-08-07T07:59:10;3.60;;;1.73;;
33160;SDS011;19522;45.656;11.302;2022-08-07T08:01:40;2.70;;;1.50;;
33160;SDS011;19522;45.656;11.302;2022-08-07T08:04:09;2.10;;;1.42;;
33160;SDS011;19522;45.656;11.302;2022-08-07T08:06:37;2.72;;;1.75;;
33160;SDS011;19522;45.656;11.302;2022-08-07T08:09:05;2.05;;;1.70;;
33160;SDS011;19522;45.656;11.302;2022-08-07T08:11:32;3.25;;;1.58;;
33160;SDS011;19522;45.656;11.302;2022-08-07T08:13:59;4.05;;;1.60;;
33160;SDS011;19522;45.656;11.302;2022-08-07T08:16:28;3.42;;;1.70;;
33160;SDS011;19522;45.656;11.302;2022-08-07T08:18:58;2.72;;;1.65;;
33160;SDS011;19522;45.656;11.302;2022-08-07T08:21:26;3.88;;;1.67;;
33160;SDS011;19522;45.656;11.302;2022-08-07T08:24:10;2.45;;;1.70;;
33160;SDS011;19522;45.656;11.302;2022-08-07T08:26:56;2.55;;;1.60;;
33160;SDS011;19522;45.656;11.302;2022-08-07T08:29:43;5.05;;;1.48;;
33160;SDS011;19522;45.656;11.302;2022-08-07T08:32:14;4.10;;;2.15;;
33160;SDS011;19522;45.656;11.302;2022-08-07T08:34:44;4.90;;;1.90;;
33160;SDS011;19522;45.656;11.302;2022-08-07T08:37:12;4.57;;;2.40;;
33160;SDS011;19522;45.656;11.302;2022-08-07T08:39:39;4.75;;;2.30;;
33160;SDS011;19522;45.656;11.302;2022-08-07T08:45:09;3.83;;;1.95;;
33160;SDS011;19522;45.656;11.302;2022-08-07T08:50:34;4.22;;;1.77;;
33160;SDS011;19522;45.656;11.302;2022-08-07T08:53:15;3.30;;;2.28;;
33160;SDS011;19522;45.656;11.302;2022-08-07T08:55:48;3.13;;;2.17;;
33160;SDS011;19522;45.656;11.302;2022-08-07T09:01:10;4.00;;;1.70;;
33160;SDS011;19522;45.656;11.302;2022-08-07T09:06:47;3.65;;;2.00;;
33160;SDS011;19522;45.656;11.302;2022-08-07T09:14:35;5.47;;;2.80;;
33160;SDS011;19522;45.656;11.302;2022-08-07T09:23:08;2.28;;;1.63;;
33160;SDS011;19522;45.656;11.302;2022-08-07T09:25:56;4.22;;;2.50;;
33160;SDS011;19522;45.656;11.302;2022-08-07T09:28:41;4.30;;;1.90;;
33160;SDS011;19522;45.656;11.302;2022-08-07T09:34:17;3.10;;;2.00;;
33160;SDS011;19522;45.656;11.302;2022-08-07T09:47:03;5.85;;;2.15;;
33160;SDS011;19522;45.656;11.302;2022-08-07T09:54:50;2.65;;;1.90;;
33160;SDS011;19522;45.656;11.302;2022-08-07T10:00:26;2.35;;;1.73;;
33160;SDS011;19522;45.656;11.302;2022-08-07T10:03:20;3.45;;;2.05;;
33160;SDS011;19522;45.656;11.302;2022-08-07T10:16:55;3.03;;;2.00;;
33160;SDS011;19522;45.656;11.302;2022-08-07T10:19:34;2.85;;;1.95;;
33160;SDS011;19522;45.656;11.302;2022-08-07T10:22:11;4.18;;;2.00;;
33160;SDS011;19522;45.656;11.302;2022-08-07T10:30:35;2.13;;;1.88;;
33160;SDS011;19522;45.656;11.302;2022-08-07T10:41:43;3.65;;;2.08;;
33160;SDS011;19522;45.656;11.302;2022-08-07T10:44:21;3.38;;;2.03;;
33160;SDS011;19522;45.656;11.302;2022-08-07T10:49:34;5.90;;;2.50;;
33160;SDS011;19522;45.656;11.302;2022-08-07T10:52:05;3.88;;;2.13;;
33160;SDS011;19522;45.656;11.302;2022-08-07T11:00:34;2.58;;;1.83;;
33160;SDS011;19522;45.656;11.302;2022-08-07T11:03:13;3.83;;;2.28;;
33160;SDS011;19522;45.656;11.302;2022-08-07T11:06:02;3.85;;;2.08;;
33160;SDS011;19522;45.656;11.302;2022-08-07T11:11:19;4.10;;;2.47;;
33160;SDS011;19522;45.656;11.302;2022-08-07T11:14:16;3.42;;;2.40;;
33160;SDS011;19522;45.656;11.302;2022-08-07T11:16:49;3.72;;;2.40;;
33160;SDS011;19522;45.656;11.302;2022-08-07T11:19:39;3.05;;;2.20;;
33160;SDS011;19522;45.656;11.302;2022-08-07T11:22:20;4.65;;;2.30;;
33160;SDS011;19522;45.656;11.302;2022-08-07T11:30:25;3.35;;;2.20;;
33160;SDS011;19522;45.656;11.302;2022-08-07T11:33:07;2.40;;;2.17;;
33160;SDS011;19522;45.656;11.302;2022-08-07T11:41:27;2.30;;;1.65;;
33160;SDS011;19522;45.656;11.302;2022-08-07T11:43:57;6.85;;;2.20;;
33160;SDS011;19522;45.656;11.302;2022-08-07T11:52:26;2.58;;;2.08;;
33160;SDS011;19522;45.656;11.302;2022-08-07T11:58:07;3.10;;;2.03;;
33160;SDS011;19522;45.656;11.302;2022-08-07T12:00:54;3.22;;;2.17;;
33160;SDS011;19522;45.656;11.302;2022-08-07T12:09:41;2.63;;;2.00;;
33160;SDS011;19522;45.656;11.302;2022-08-07T12:12:27;4.20;;;2.55;;
33160;SDS011;19522;45.656;11.302;2022-08-07T12:15:16;2.95;;;2.30;;
33160;SDS011;19522;45.656;11.302;2022-08-07T12:17:51;2.97;;;2.20;;
33160;SDS011;19522;45.656;11.302;2022-08-07T12:20:29;3.63;;;2.30;;
33160;SDS011;19522;45.656;11.302;2022-08-07T12:26:25;2.38;;;2.08;;
33160;SDS011;19522;45.656;11.302;2022-08-07T12:28:57;4.03;;;2.20;;
33160;SDS011;19522;45.656;11.302;2022-08-07T12:31:36;3.30;;;2.38;;
33160;SDS011;19522;45.656;11.302;2022-08-07T12:34:07;2.80;;;2.30;;
33160;SDS011;19522;45.656;11.302;2022-08-07T12:36:35;2.60;;;1.88;;
33160;SDS011;19522;45.656;11.302;2022-08-07T12:39:03;3.72;;;2.20;;
33160;SDS011;19522;45.656;11.302;2022-08-07T12:41:29;2.65;;;2.05;;
33160;SDS011;19522;45.656;11.302;2022-08-07T12:43:59;4.82;;;2.47;;
33160;SDS011;19522;45.656;11.302;2022-08-07T12:49:14;3.53;;;2.20;;
33160;SDS011;19522;45.656;11.302;2022-08-07T12:52:04;2.13;;;1.77;;
33160;SDS011;19522;45.656;11.302;2022-08-07T12:54:37;2.63;;;2.00;;
33160;SDS011;19522;45.656;11.302;2022-08-07T12:57:08;2.50;;;2.10;;
33160;SDS011;19522;45.656;11.302;2022-08-07T12:59:39;2.60;;;1.80;;
33160;SDS011;19522;45.656;11.302;2022-08-07T13:10:09;3.78;;;2.10;;
33160;SDS011;19522;45.656;11.302;2022-08-07T13:21:11;5.75;;;2.10;;
33160;SDS011;19522;45.656;11.302;2022-08-07T13:26:38;3.83;;;1.85;;
33160;SDS011;19522;45.656;11.302;2022-08-07T13:29:11;3.20;;;2.00;;
33160;SDS011;19522;45.656;11.302;2022-08-07T13:31:43;3.22;;;2.10;;
33160;SDS011;19522;45.656;11.302;2022-08-07T13:36:59;2.63;;;1.90;;
33160;SDS011;19522;45.656;11.302;2022-08-07T13:39:49;3.20;;;1.67;;
33160;SDS011;19522;45.656;11.302;2022-08-07T13:42:26;2.58;;;1.85;;
33160;SDS011;19522;45.656;11.302;2022-08-07T13:44:54;2.97;;;1.63;;
33160;SDS011;19522;45.656;11.302;2022-08-07T13:47:21;2.13;;;1.40;;
33160;SDS011;19522;45.656;11.302;2022-08-07T13:49:52;2.85;;;1.60;;
33160;SDS011;19522;45.656;11.302;2022-08-07T13:52:21;1.73;;;1.48;;
33160;SDS011;19522;45.656;11.302;2022-08-07T13:54:49;2.80;;;1.27;;
33160;SDS011;19522;45.656;11.302;2022-08-07T13:57:15;1.88;;;1.35;;
33160;SDS011;19522;45.656;11.302;2022-08-07T13:59:43;1.33;;;1.17;;
33160;SDS011;19522;45.656;11.302;2022-08-07T14:02:18;1.95;;;1.27;;
33160;SDS011;19522;45.656;11.302;2022-08-07T14:04:49;2.65;;;1.23;;
33160;SDS011;19522;45.656;11.302;2022-08-07T14:07:21;1.30;;;1.13;;
33160;SDS011;19522;45.656;11.302;2022-08-07T14:10:08;1.45;;;1.20;;
33160;SDS011;19522;45.656;11.302;2022-08-07T14:12:36;1.20;;;1.10;;
33160;SDS011;19522;45.656;11.302;2022-08-07T14:18:03;2.03;;;1.42;;
33160;SDS011;19522;45.656;11.302;2022-08-07T14:20:32;1.80;;;1.40;;
33160;SDS011;19522;45.656;11.302;2022-08-07T14:23:13;1.88;;;1.30;;
33160;SDS011;19522;45.656;11.302;2022-08-07T14:25:42;1.80;;;1.13;;
33160;SDS011;19522;45.656;11.302;2022-08-07T14:28:10;1.23;;;0.95;;
33160;SDS011;19522;45.656;11.302;2022-08-07T14:30:39;2.83;;;1.58;;
33160;SDS011;19522;45.656;11.302;2022-08-07T14:35:39;2.03;;;1.27;;
33160;SDS011;19522;45.656;11.302;2022-08-07T14:38:06;1.77;;;1.55;;
33160;SDS011;19522;45.656;11.302;2022-08-07T14:40:33;1.60;;;1.20;;
33160;SDS011;19522;45.656;11.302;2022-08-07T14:43:01;2.47;;;1.42;;
33160;SDS011;19522;45.656;11.302;2022-08-07T14:45:33;2.38;;;1.50;;
33160;SDS011;19522;45.656;11.302;2022-08-07T14:48:10;1.65;;;1.38;;
33160;SDS011;19522;45.656;11.302;2022-08-07T14:50:41;1.77;;;1.40;;
33160;SDS011;19522;45.656;11.302;2022-08-07T14:53:20;2.50;;;1.40;;
33160;SDS011;19522;45.656;11.302;2022-08-07T14:55:48;3.58;;;1.70;;
33160;SDS011;19522;45.656;11.302;2022-08-07T14:58:14;1.63;;;1.33;;
33160;SDS011;19522;45.656;11.302;2022-08-07T15:00:42;2.17;;;1.55;;
33160;SDS011;19522;45.656;11.302;2022-08-07T15:03:14;2.15;;;1.67;;
33160;SDS011;19522;45.656;11.302;2022-08-07T15:05:46;2.33;;;1.40;;
33160;SDS011;19522;45.656;11.302;2022-08-07T15:08:20;2.05;;;1.70;;
33160;SDS011;19522;45.656;11.302;2022-08-07T15:10:50;1.80;;;1.45;;
33160;SDS011;19522;45.656;11.302;2022-08-07T15:13:21;5.07;;;1.92;;
33160;SDS011;19522;45.656;11.302;2022-08-07T15:15:59;1.85;;;1.50;;
33160;SDS011;19522;45.656;11.302;2022-08-07T15:18:34;2.17;;;1.55;;
33160;SDS011;19522;45.656;11.302;2022-08-07T15:21:27;2.15;;;1.67;;
33160;SDS011;19522;45.656;11.302;2022-08-07T15:23:52;1.70;;;1.50;;
33160;SDS011;19522;45.656;11.302;2022-08-07T15:26:23;2.25;;;1.55;;
33160;SDS011;19522;45.656;11.302;2022-08-07T15:28:59;2.35;;;1.63;;
33160;SDS011;19522;45.656;11.302;2022-08-07T15:31:27;2.15;;;1.75;;
33160;SDS011;19522;45.656;11.302;2022-08-07T15:33:55;2.45;;;1.65;;
33160;SDS011;19522;45.656;11.302;2022-08-07T15:36:25;1.95;;;1.70;;
33160;SDS011;19522;45.656;11.302;2022-08-07T15:38:55;2.40;;;1.65;;
33160;SDS011;19522;45.656;11.302;2022-08-07T15:41:27;1.65;;;1.42;;
33160;SDS011;19522;45.656;11.302;2022-08-07T15:44:12;1.90;;;1.60;;
33160;SDS011;19522;45.656;11.302;2022-08-07T15:46:43;2.53;;;1.77;;
33160;SDS011;19522;45.656;11.302;2022-08-07T15:49:13;1.63;;;1.42;;
33160;SDS011;19522;45.656;11.302;2022-08-07T15:51:42;1.95;;;1.50;;
33160;SDS011;19522;45.656;11.302;2022-08-07T15:54:09;1.77;;;1.30;;
33160;SDS011;19522;45.656;11.302;2022-08-07T15:56:37;1.73;;;1.60;;
33160;SDS011;19522;45.656;11.302;2022-08-07T15:59:10;1.65;;;1.40;;
33160;SDS011;19522;45.656;11.302;2022-08-07T16:01:44;2.88;;;1.30;;
33160;SDS011;19522;45.656;11.302;2022-08-07T16:04:13;2.58;;;1.35;;
33160;SDS011;19522;45.656;11.302;2022-08-07T16:06:46;1.70;;;1.30;;
33160;SDS011;19522;45.656;11.302;2022-08-07T16:17:27;2.30;;;1.30;;
33160;SDS011;19522;45.656;11.302;2022-08-07T16:26:03;1.73;;;1.45;;
33160;SDS011;19522;45.656;11.302;2022-08-07T16:28:51;2.10;;;1.58;;
33160;SDS011;19522;45.656;11.302;2022-08-07T16:33:54;2.88;;;1.70;;
33160;SDS011;19522;45.656;11.302;2022-08-07T16:39:10;2.72;;;1.58;;
33160;SDS011;19522;45.656;11.302;2022-08-07T16:47:20;1.77;;;1.20;;
33160;SDS011;19522;45.656;11.302;2022-08-07T16:58:41;2.58;;;2.00;;
33160;SDS011;19522;45.656;11.302;2022-08-07T17:01:33;2.00;;;1.58;;
33160;SDS011;19522;45.656;11.302;2022-08-07T17:09:25;2.40;;;1.70;;
33160;SDS011;19522;45.656;11.302;2022-08-07T17:17:31;2.42;;;1.90;;
33160;SDS011;19522;45.656;11.302;2022-08-07T17:20:15;3.22;;;1.88;;
33160;SDS011;19522;45.656;11.302;2022-08-07T17:23:19;7.53;;;4.85;;
33160;SDS011;19522;45.656;11.302;2022-08-07T17:34:11;4.80;;;3.05;;
33160;SDS011;19522;45.656;11.302;2022-08-07T17:36:41;3.30;;;2.13;;
33160;SDS011;19522;45.656;11.302;2022-08-07T17:39:13;2.47;;;1.45;;
33160;SDS011;19522;45.656;11.302;2022-08-07T17:41:56;1.83;;;1.55;;
33160;SDS011;19522;45.656;11.302;2022-08-07T17:44:30;3.63;;;1.77;;
33160;SDS011;19522;45.656;11.302;2022-08-07T17:47:07;3.55;;;1.70;;
33160;SDS011;19522;45.656;11.302;2022-08-07T17:49:38;2.10;;;1.58;;
33160;SDS011;19522;45.656;11.302;2022-08-07T17:52:12;3.13;;;2.40;;
33160;SDS011;19522;45.656;11.302;2022-08-07T17:54:49;3.42;;;2.13;;
33160;SDS011;19522;45.656;11.302;2022-08-07T17:59:51;4.40;;;2.10;;
33160;SDS011;19522;45.656;11.302;2022-08-07T18:05:09;1.88;;;1.67;;
33160;SDS011;19522;45.656;11.302;2022-08-07T18:07:44;6.80;;;2.30;;
33160;SDS011;19522;45.656;11.302;2022-08-07T18:18:49;2.47;;;1.92;;
33160;SDS011;19522;45.656;11.302;2022-08-07T18:21:21;9.77;;;4.65;;
33160;SDS011;19522;45.656;11.302;2022-08-07T18:26:43;5.03;;;2.10;;
33160;SDS011;19522;45.656;11.302;2022-08-07T18:32:24;4.65;;;2.28;;
33160;SDS011;19522;45.656;11.302;2022-08-07T18:41:21;3.50;;;1.92;;
33160;SDS011;19522;45.656;11.302;2022-08-07T18:44:02;2.73;;;2.10;;
33160;SDS011;19522;45.656;11.302;2022-08-07T18:49:43;3.53;;;2.17;;
33160;SDS011;19522;45.656;11.302;2022-08-07T18:55:10;2.72;;;2.00;;
33160;SDS011;19522;45.656;11.302;2022-08-07T19:00:21;4.00;;;1.95;;
33160;SDS011;19522;45.656;11.302;2022-08-07T19:03:24;2.50;;;1.90;;
33160;SDS011;19522;45.656;11.302;2022-08-07T19:06:35;2.58;;;2.28;;